Time;durP1;ratioP1;P1;durP2;ratioP2;P2;SDS_P1;SDS_P2;PMS_P1;PMS_P2;Temp;Humidity;BMP_temperature;BMP_pressure;BME280_temperature;BME280_humidity;BME280_pressure;Samples;Min_cycle;Max_cycle;Signal;HPM_P1;HPM_P2
2024/02/20 00:02:56;;;;;;;3.85;1.75;;;;;;;;;;10579590;27;20522;-75
2024/02/20 00:08:02;;;;;;;3.00;0.70;;;;;;;;;;10563197;27;20047;-75
2024/02/20 00:13:07;;;;;;;5.05;1.90;;;;;;;;;;10563784;27;20043;-76
2024/02/20 00:18:10;;;;;;;;;;;;;;;;;;10570913;27;20400;-75
2024/02/20 00:23:14;;;;;;;5.85;2.15;;;;;;;;;;10565052;27;19930;-75
2024/02/20 00:28:18;;;;;;;2.90;1.35;;;;;;;;;;10576411;27;20054;-77
2024/02/20 00:33:21;;;;;;;6.40;1.77;;;;;;;;;;10559462;27;20036;-74
2024/02/20 00:38:24;;;;;;;2.38;1.30;;;;;;;;;;10564582;27;20048;-74
2024/02/20 00:43:28;;;;;;;5.53;2.00;;;;;;;;;;10574144;27;20578;-75
2024/02/20 00:48:32;;;;;;;2.83;1.13;;;;;;;;;;10562371;27;20105;-75
2024/02/20 00:53:35;;;;;;;2.67;1.33;;;;;;;;;;10565694;27;20051;-75
2024/02/20 00:58:39;;;;;;;3.60;1.40;;;;;;;;;;10561742;27;20381;-74
2024/02/20 01:03:42;;;;;;;;;;;;;;;;;;10559890;28;20050;-76
2024/02/20 01:08:45;;;;;;;3.07;0.90;;;;;;;;;;10566738;27;19919;-74
2024/02/20 01:13:49;;;;;;;1.83;0.93;;;;;;;;;;10565499;28;20048;-74
2024/02/20 01:18:52;;;;;;;1.42;1.00;;;;;;;;;;10570924;27;20064;-74
2024/02/20 01:23:55;;;;;;;1.00;0.70;;;;;;;;;;10557717;28;20659;-74
2024/02/20 01:28:59;;;;;;;3.65;1.10;;;;;;;;;;10560905;27;20120;-75
2024/02/20 01:34:01;;;;;;;2.38;1.00;;;;;;;;;;10562771;27;20050;-75
2024/02/20 01:39:04;;;;;;;2.35;1.55;;;;;;;;;;10557489;27;20492;-74
2024/02/20 01:44:09;;;;;;;1.20;0.70;;;;;;;;;;10567377;27;20036;-75
2024/02/20 01:49:12;;;;;;;1.35;0.70;;;;;;;;;;10557428;27;20436;-74
2024/02/20 01:54:15;;;;;;;0.90;0.80;;;;;;;;;;10556525;27;20377;-75
2024/02/20 01:59:19;;;;;;;0.95;0.95;;;;;;;;;;10567789;27;20433;-75
2024/02/20 02:04:21;;;;;;;2.70;1.13;;;;;;;;;;10553243;28;20500;-75
2024/02/20 02:09:24;;;;;;;4.10;1.50;;;;;;;;;;10560967;27;20115;-74
2024/02/20 02:14:28;;;;;;;1.30;0.98;;;;;;;;;;10559357;27;20614;-75
2024/02/20 02:19:31;;;;;;;3.67;0.95;;;;;;;;;;10580866;27;20094;-75
2024/02/20 02:24:34;;;;;;;4.25;1.27;;;;;;;;;;10579728;27;20040;-75
2024/02/20 02:29:38;;;;;;;2.50;1.17;;;;;;;;;;10564294;27;20100;-74
2024/02/20 02:34:40;;;;;;;1.63;0.60;;;;;;;;;;10574418;27;20245;-76
2024/02/20 02:39:43;;;;;;;0.47;0.38;;;;;;;;;;10577939;27;20036;-75
2024/02/20 02:44:47;;;;;;;1.67;0.80;;;;;;;;;;10570456;27;20044;-75
2024/02/20 02:49:50;;;;;;;1.83;0.57;;;;;;;;;;10577520;27;20040;-74
2024/02/20 02:54:53;;;;;;;0.28;0.28;;;;;;;;;;10571421;27;20089;-75
2024/02/20 02:59:57;;;;;;;0.50;0.50;;;;;;;;;;10571085;27;20051;-75
2024/02/20 03:04:59;;;;;;;0.40;0.40;;;;;;;;;;10585904;27;20037;-75
2024/02/20 03:10:02;;;;;;;0.45;0.43;;;;;;;;;;10582124;27;20043;-76
2024/02/20 03:15:06;;;;;;;1.52;0.70;;;;;;;;;;10578135;27;20028;-76
2024/02/20 03:20:14;;;;;;;1.25;0.80;;;;;;;;;;10566243;27;20043;-75
2024/02/20 03:25:18;;;;;;;2.60;0.90;;;;;;;;;;10570314;27;20081;-74
2024/02/20 03:30:22;;;;;;;1.83;0.90;;;;;;;;;;10575075;27;20113;-75
2024/02/20 03:35:24;;;;;;;1.25;0.80;;;;;;;;;;10562586;27;20047;-75
2024/02/20 03:40:27;;;;;;;1.42;0.68;;;;;;;;;;10568775;27;20074;-74
2024/02/20 03:45:32;;;;;;;3.03;0.50;;;;;;;;;;10566418;27;20117;-74
2024/02/20 03:50:35;;;;;;;1.42;0.93;;;;;;;;;;10552427;27;20188;-75
2024/02/20 03:55:37;;;;;;;1.52;0.60;;;;;;;;;;10574165;27;20064;-76
2024/02/20 04:00:41;;;;;;;1.88;0.95;;;;;;;;;;10568295;27;20039;-76
2024/02/20 04:05:44;;;;;;;;;;;;;;;;;;10569964;27;20115;-76
2024/02/20 04:10:47;;;;;;;3.45;1.20;;;;;;;;;;10569591;27;20293;-75
2024/02/20 04:15:51;;;;;;;0.95;0.75;;;;;;;;;;10564418;27;20043;-75
2024/02/20 04:20:54;;;;;;;1.60;0.73;;;;;;;;;;10571599;27;20483;-76
2024/02/20 04:25:57;;;;;;;3.47;1.40;;;;;;;;;;10567139;27;20349;-76
2024/02/20 04:31:01;;;;;;;1.52;0.98;;;;;;;;;;10571154;27;20043;-75
2024/02/20 04:36:04;;;;;;;2.00;1.30;;;;;;;;;;10567424;27;20039;-75
2024/02/20 04:41:07;;;;;;;2.43;1.07;;;;;;;;;;10566626;27;20077;-76
2024/02/20 04:46:11;;;;;;;1.38;0.82;;;;;;;;;;10572736;27;20050;-76
2024/02/20 04:51:14;;;;;;;;;;;;;;;;;;10566571;27;20066;-76
2024/02/20 04:56:17;;;;;;;4.22;1.38;;;;;;;;;;10571736;27;19927;-75
2024/02/20 05:01:22;;;;;;;2.42;0.98;;;;;;;;;;10570048;27;20065;-74
2024/02/20 05:06:25;;;;;;;2.92;1.20;;;;;;;;;;10564561;27;20047;-74
2024/02/20 05:11:27;;;;;;;2.72;1.48;;;;;;;;;;10579345;27;20039;-76
2024/02/20 05:16:31;;;;;;;4.70;2.13;;;;;;;;;;10582212;27;20087;-75
2024/02/20 05:21:34;;;;;;;;;;;;;;;;;;10565168;27;20040;-75
2024/02/20 05:26:37;;;;;;;5.40;2.17;;;;;;;;;;10563587;27;19958;-74
2024/02/20 05:31:41;;;;;;;4.75;1.98;;;;;;;;;;10562553;27;20066;-76
2024/02/20 05:36:44;;;;;;;4.32;2.08;;;;;;;;;;10550131;28;20073;-75
2024/02/20 05:41:48;;;;;;;6.80;1.95;;;;;;;;;;10573067;27;20044;-75
2024/02/20 05:46:52;;;;;;;4.85;1.88;;;;;;;;;;10560065;27;20040;-76
2024/02/20 05:51:55;;;;;;;;;;;;;;;;;;10571238;27;20036;-76
2024/02/20 05:56:58;;;;;;;4.40;1.73;;;;;;;;;;10566674;27;19963;-77
2024/02/20 06:02:02;;;;;;;3.87;1.87;;;;;;;;;;10565397;27;20043;-77
2024/02/20 06:07:05;;;;;;;5.45;2.88;;;;;;;;;;10557593;28;20050;-78
2024/02/20 06:12:09;;;;;;;5.93;2.33;;;;;;;;;;10561538;27;20059;-77
2024/02/20 06:17:13;;;;;;;5.10;2.22;;;;;;;;;;10565533;28;20178;-74
2024/02/20 06:22:16;;;;;;;8.13;2.22;;;;;;;;;;10570585;28;20046;-75
2024/02/20 06:27:19;;;;;;;6.57;2.38;;;;;;;;;;10555775;28;20088;-75
2024/02/20 06:32:23;;;;;;;4.45;2.20;;;;;;;;;;10565619;28;20036;-76
2024/02/20 06:37:25;;;;;;;5.93;2.40;;;;;;;;;;10573285;28;20055;-76
2024/02/20 06:42:29;;;;;;;5.20;2.20;;;;;;;;;;10560625;28;20031;-76
2024/02/20 06:47:33;;;;;;;1.63;1.00;;;;;;;;;;10565373;28;20031;-76
2024/02/20 06:52:38;;;;;;;;;;;;;;;;;;10561860;28;20529;-76
2024/02/20 06:57:43;;;;;;;1.92;1.00;;;;;;;;;;10565993;28;19920;-76
2024/02/20 07:02:49;;;;;;;1.88;1.08;;;;;;;;;;10562499;27;20514;-77
2024/02/20 07:07:52;;;;;;;1.35;0.93;;;;;;;;;;10573663;27;20050;-77
2024/02/20 07:12:55;;;;;;;2.13;1.20;;;;;;;;;;10592967;27;20032;-76
2024/02/20 07:18:00;;;;;;;4.75;2.10;;;;;;;;;;10570167;27;20040;-75
2024/02/20 07:23:02;;;;;;;4.55;1.75;;;;;;;;;;10574244;27;20604;-76
2024/02/20 07:28:06;;;;;;;3.90;1.90;;;;;;;;;;10555151;27;20050;-76
2024/02/20 07:33:10;;;;;;;7.32;1.92;;;;;;;;;;10568344;27;20031;-76
2024/02/20 07:38:13;;;;;;;8.93;2.22;;;;;;;;;;10575208;27;20071;-76
2024/02/20 07:43:15;;;;;;;4.10;2.13;;;;;;;;;;10566600;27;20057;-75
2024/02/20 07:48:19;;;;;;;8.75;2.60;;;;;;;;;;10570296;27;20035;-75
2024/02/20 07:53:22;;;;;;;7.13;3.10;;;;;;;;;;10559244;27;20035;-76
2024/02/20 07:58:25;;;;;;;6.75;2.33;;;;;;;;;;10558487;27;20382;-75
2024/02/20 08:03:43;;;;;;;3.38;1.45;;;;;;;;;;10570955;27;20100;-76
2024/02/20 08:08:46;;;;;;;4.43;2.10;;;;;;;;;;10573520;27;20106;-75
2024/02/20 08:13:50;;;;;;;8.40;2.40;;;;;;;;;;10559185;27;20044;-74
2024/02/20 08:18:54;;;;;;;6.82;2.40;;;;;;;;;;10570836;27;20047;-76
2024/02/20 08:23:58;;;;;;;6.47;1.85;;;;;;;;;;10559897;27;20044;-75
2024/02/20 08:29:01;;;;;;;4.95;2.17;;;;;;;;;;10558243;27;20047;-77
2024/02/20 08:34:05;;;;;;;7.50;2.65;;;;;;;;;;10570008;27;20056;-76
2024/02/20 08:39:12;;;;;;;6.53;2.10;;;;;;;;;;10558400;28;20673;-77
2024/02/20 08:44:15;;;;;;;5.60;2.50;;;;;;;;;;10565768;28;20516;-74
2024/02/20 08:49:20;;;;;;;8.20;2.30;;;;;;;;;;10555451;28;20089;-76
2024/02/20 08:54:23;;;;;;;5.43;1.98;;;;;;;;;;10560096;27;20066;-76
2024/02/20 08:59:25;;;;;;;5.95;1.85;;;;;;;;;;10568025;27;20461;-76
2024/02/20 09:04:29;;;;;;;4.13;1.38;;;;;;;;;;10560664;27;20040;-77
2024/02/20 09:09:32;;;;;;;8.02;1.88;;;;;;;;;;10564327;27;20048;-75
2024/02/20 09:14:35;;;;;;;6.90;1.80;;;;;;;;;;10560323;27;20481;-76
2024/02/20 09:19:40;;;;;;;5.25;1.73;;;;;;;;;;10577009;27;20512;-76
2024/02/20 09:24:45;;;;;;;7.93;1.95;;;;;;;;;;10577011;27;20035;-76
2024/02/20 09:29:48;;;;;;;3.90;1.52;;;;;;;;;;10564683;27;20104;-76
2024/02/20 09:34:52;;;;;;;5.35;2.30;;;;;;;;;;10566794;27;20127;-76
2024/02/20 09:39:56;;;;;;;6.90;1.90;;;;;;;;;;10570491;27;20541;-76
2024/02/20 09:44:59;;;;;;;9.60;2.50;;;;;;;;;;10552419;27;20051;-75
2024/02/20 09:50:03;;;;;;;9.55;2.20;;;;;;;;;;10560631;27;20566;-75
2024/02/20 09:55:07;;;;;;;9.77;2.40;;;;;;;;;;10559257;27;20047;-75
2024/02/20 10:00:11;;;;;;;5.78;1.90;;;;;;;;;;10565723;27;20127;-75
2024/02/20 10:05:16;;;;;;;8.87;2.70;;;;;;;;;;10564888;28;20104;-74
2024/02/20 10:10:19;;;;;;;4.00;1.42;;;;;;;;;;10564844;28;20305;-75
2024/02/20 10:15:22;;;;;;;5.43;1.40;;;;;;;;;;10564999;28;20039;-75
2024/02/20 10:20:26;;;;;;;7.05;2.13;;;;;;;;;;10562927;28;20043;-75
2024/02/20 10:25:30;;;;;;;3.90;2.05;;;;;;;;;;10566233;28;20075;-75
2024/02/20 10:30:32;;;;;;;6.23;2.63;;;;;;;;;;10564887;28;20063;-75
2024/02/20 10:35:39;;;;;;;7.65;2.70;;;;;;;;;;10565051;27;20043;-75
2024/02/20 10:40:42;;;;;;;7.03;2.35;;;;;;;;;;10567408;27;20052;-76
2024/02/20 10:45:50;;;;;;;6.22;2.10;;;;;;;;;;10570513;27;20043;-76
2024/02/20 10:50:55;;;;;;;8.43;1.90;;;;;;;;;;10565815;27;20047;-76
2024/02/20 10:56:01;;;;;;;5.80;1.85;;;;;;;;;;10574921;27;20138;-76
2024/02/20 11:01:04;;;;;;;11.95;2.30;;;;;;;;;;10574840;27;20076;-77
2024/02/20 11:06:09;;;;;;;7.68;1.73;;;;;;;;;;10558412;27;20066;-76
2024/02/20 11:11:13;;;;;;;4.35;1.50;;;;;;;;;;10571002;27;20470;-75
2024/02/20 11:16:16;;;;;;;6.13;2.25;;;;;;;;;;10561381;27;20123;-74
2024/02/20 11:21:28;;;;;;;9.75;2.33;;;;;;;;;;10564610;27;20511;-77
2024/02/20 11:26:31;;;;;;;4.78;1.80;;;;;;;;;;10570194;27;20082;-76
2024/02/20 11:31:34;;;;;;;4.83;1.77;;;;;;;;;;10571971;27;20103;-75
2024/02/20 11:36:38;;;;;;;5.50;1.70;;;;;;;;;;10552795;27;20135;-77
2024/02/20 11:41:41;;;;;;;1.77;1.13;;;;;;;;;;10576432;27;20043;-74
2024/02/20 11:46:53;;;;;;;7.75;1.80;;;;;;;;;;10564525;27;20035;-75
2024/02/20 11:52:05;;;;;;;6.18;1.98;;;;;;;;;;10562021;27;20039;-75
2024/02/20 11:57:08;;;;;;;4.22;1.45;;;;;;;;;;10569528;27;20036;-76
2024/02/20 12:02:12;;;;;;;3.60;1.00;;;;;;;;;;10573437;27;20044;-75
2024/02/20 12:07:16;;;;;;;4.07;1.02;;;;;;;;;;10557903;27;20125;-75
2024/02/20 12:12:25;;;;;;;5.22;1.23;;;;;;;;;;10565512;27;20047;-76
2024/02/20 12:17:38;;;;;;;9.25;1.80;;;;;;;;;;10567303;27;20062;-75
2024/02/20 12:22:42;;;;;;;5.10;1.35;;;;;;;;;;10563564;27;20040;-75
2024/02/20 12:27:47;;;;;;;3.92;1.60;;;;;;;;;;10567968;27;20050;-75
2024/02/20 12:32:50;;;;;;;3.95;1.52;;;;;;;;;;10564491;27;20048;-77
2024/02/20 12:37:54;;;;;;;4.07;1.70;;;;;;;;;;10563419;27;20032;-75
2024/02/20 12:42:57;;;;;;;2.67;1.08;;;;;;;;;;10567200;27;20103;-75
2024/02/20 12:48:00;;;;;;;5.78;1.42;;;;;;;;;;10546720;27;20086;-74
2024/02/20 12:53:05;;;;;;;5.75;1.50;;;;;;;;;;10565912;27;20469;-75
2024/02/20 12:58:08;;;;;;;2.55;1.20;;;;;;;;;;10565943;27;20104;-75
2024/02/20 13:03:11;;;;;;;3.13;1.20;;;;;;;;;;10570585;27;20495;-76
2024/02/20 13:08:15;;;;;;;6.07;1.40;;;;;;;;;;10557712;27;20059;-75
2024/02/20 13:13:18;;;;;;;2.85;1.13;;;;;;;;;;10565063;27;20055;-75
2024/02/20 13:18:21;;;;;;;2.93;1.20;;;;;;;;;;10565246;27;20572;-77
2024/02/20 13:23:25;;;;;;;5.60;1.30;;;;;;;;;;10567997;27;20032;-75
2024/02/20 13:28:27;;;;;;;5.55;1.33;;;;;;;;;;10571559;27;20126;-75
2024/02/20 13:33:30;;;;;;;7.85;1.58;;;;;;;;;;10564760;27;20078;-76
2024/02/20 13:38:40;;;;;;;6.90;1.80;;;;;;;;;;10570012;28;20032;-76
2024/02/20 13:43:43;;;;;;;4.75;1.40;;;;;;;;;;10566432;27;20139;-75
2024/02/20 13:48:46;;;;;;;4.93;1.70;;;;;;;;;;10573085;27;20039;-76
2024/02/20 13:53:50;;;;;;;5.53;1.50;;;;;;;;;;10559504;27;20393;-75
2024/02/20 13:58:53;;;;;;;;;;;;;;;;;;10566865;27;20063;-75
2024/02/20 14:03:55;;;;;;;7.40;2.10;;;;;;;;;;10558922;28;19953;-76
2024/02/20 14:08:59;;;;;;;6.40;1.80;;;;;;;;;;10557904;27;20043;-75
2024/02/20 14:14:01;;;;;;;;;;;;;;;;;;10560723;28;20112;-75
2024/02/20 14:19:04;;;;;;;5.90;1.70;;;;;;;;;;10564553;28;19947;-75
2024/02/20 14:24:08;;;;;;;2.45;1.70;;;;;;;;;;10561759;28;20488;-75
2024/02/20 14:29:11;;;;;;;4.22;1.83;;;;;;;;;;10566145;28;20473;-75
2024/02/20 14:34:13;;;;;;;4.75;1.20;;;;;;;;;;10565238;28;20113;-76
2024/02/20 14:39:18;;;;;;;5.40;1.60;;;;;;;;;;10553347;28;20123;-76
2024/02/20 14:44:22;;;;;;;3.47;1.90;;;;;;;;;;10571295;28;20048;-75
2024/02/20 14:49:26;;;;;;;7.72;1.50;;;;;;;;;;10563696;28;20047;-75
2024/02/20 14:54:32;;;;;;;4.00;1.40;;;;;;;;;;10570485;28;20043;-76
2024/02/20 14:59:35;;;;;;;4.65;1.35;;;;;;;;;;10554331;28;20485;-75
2024/02/20 15:04:38;;;;;;;6.60;1.73;;;;;;;;;;10550644;28;20464;-75
2024/02/20 15:09:42;;;;;;;5.27;1.33;;;;;;;;;;10551837;28;20048;-76
2024/02/20 15:14:47;;;;;;;9.20;2.10;;;;;;;;;;10568031;28;20067;-76
2024/02/20 15:19:50;;;;;;;4.57;1.50;;;;;;;;;;10557519;28;20130;-74
2024/02/20 15:24:54;;;;;;;;;;;;;;;;;;10576865;27;20602;-75
2024/02/20 15:29:59;;;;;;;3.47;0.73;;;;;;;;;;10576757;27;19935;-75
2024/02/20 15:35:05;;;;;;;7.63;1.63;;;;;;;;;;10569774;27;20543;-75
2024/02/20 15:40:09;;;;;;;4.25;1.30;;;;;;;;;;10556795;27;20039;-74
2024/02/20 15:45:14;;;;;;;4.25;2.05;;;;;;;;;;10559123;27;20586;-74
2024/02/20 15:50:17;;;;;;;6.32;1.33;;;;;;;;;;10569888;28;20066;-75
2024/02/20 15:55:19;;;;;;;6.53;1.67;;;;;;;;;;10574913;27;20477;-74
2024/02/20 16:00:24;;;;;;;5.82;1.38;;;;;;;;;;10566620;27;20053;-75
2024/02/20 16:05:26;;;;;;;5.03;1.55;;;;;;;;;;10573546;27;20055;-75
2024/02/20 16:10:29;;;;;;;5.75;1.23;;;;;;;;;;10579798;27;20036;-75
2024/02/20 16:15:33;;;;;;;3.13;0.95;;;;;;;;;;10574914;27;20035;-74
2024/02/20 16:20:35;;;;;;;2.75;0.93;;;;;;;;;;10578409;27;20099;-75
2024/02/20 16:25:38;;;;;;;4.35;1.13;;;;;;;;;;10571460;27;20048;-74
2024/02/20 16:30:42;;;;;;;6.15;1.50;;;;;;;;;;10573025;27;20055;-74
2024/02/20 16:35:45;;;;;;;3.17;1.52;;;;;;;;;;10559554;27;20040;-74
2024/02/20 16:40:47;;;;;;;4.70;1.27;;;;;;;;;;10568252;27;20048;-77
2024/02/20 16:45:52;;;;;;;5.38;1.20;;;;;;;;;;10569326;27;20567;-75
2024/02/20 16:50:54;;;;;;;4.35;1.00;;;;;;;;;;10556366;27;20110;-75
2024/02/20 16:55:57;;;;;;;4.78;1.17;;;;;;;;;;10562413;27;20032;-76
2024/02/20 17:01:01;;;;;;;5.18;1.45;;;;;;;;;;10562616;27;20040;-74
2024/02/20 17:06:04;;;;;;;5.45;1.65;;;;;;;;;;10565660;27;20445;-74
2024/02/20 17:11:06;;;;;;;2.40;0.85;;;;;;;;;;10568517;27;20031;-75
2024/02/20 17:16:11;;;;;;;4.20;1.55;;;;;;;;;;10567314;27;20495;-75
2024/02/20 17:21:14;;;;;;;3.30;1.10;;;;;;;;;;10571858;27;20028;-75
2024/02/20 17:26:17;;;;;;;4.00;1.17;;;;;;;;;;10562325;27;20036;-74
2024/02/20 17:31:21;;;;;;;1.10;0.50;;;;;;;;;;10566593;27;20051;-74
2024/02/20 17:36:23;;;;;;;3.60;1.40;;;;;;;;;;10558189;27;20032;-76
2024/02/20 17:41:26;;;;;;;6.50;1.48;;;;;;;;;;10561327;27;20131;-76
2024/02/20 17:46:30;;;;;;;6.22;1.27;;;;;;;;;;10572417;27;20040;-76
2024/02/20 17:51:35;;;;;;;4.78;1.02;;;;;;;;;;10569116;27;20059;-76
2024/02/20 17:56:38;;;;;;;4.50;1.50;;;;;;;;;;10565658;27;20085;-74
2024/02/20 18:01:43;;;;;;;4.32;1.35;;;;;;;;;;10577290;27;20554;-74
2024/02/20 18:06:46;;;;;;;5.60;1.23;;;;;;;;;;10561312;27;20031;-76
2024/02/20 18:11:49;;;;;;;3.47;0.80;;;;;;;;;;10564541;28;20665;-75
2024/02/20 18:16:53;;;;;;;4.13;1.45;;;;;;;;;;10560836;28;20052;-75
2024/02/20 18:21:56;;;;;;;3.63;0.73;;;;;;;;;;10565378;28;20527;-75
2024/02/20 18:26:58;;;;;;;5.43;1.50;;;;;;;;;;10560385;28;20071;-77
2024/02/20 18:32:02;;;;;;;4.07;0.95;;;;;;;;;;10547569;28;20113;-77
2024/02/20 18:37:07;;;;;;;2.20;0.93;;;;;;;;;;10564101;28;20128;-74
2024/02/20 18:42:10;;;;;;;3.85;1.83;;;;;;;;;;10573505;28;20039;-76
2024/02/20 18:47:15;;;;;;;4.53;1.80;;;;;;;;;;10563562;28;20385;-76
2024/02/20 18:52:18;;;;;;;2.47;1.20;;;;;;;;;;10562873;28;20121;-76
2024/02/20 18:57:21;;;;;;;1.40;0.82;;;;;;;;;;10566403;27;20046;-74
2024/02/20 19:02:25;;;;;;;2.20;1.23;;;;;;;;;;10567358;27;20043;-75
2024/02/20 19:07:35;;;;;;;4.32;0.98;;;;;;;;;;10570410;27;20044;-75
2024/02/20 19:12:38;;;;;;;1.80;1.05;;;;;;;;;;10569961;27;20078;-75
2024/02/20 19:17:42;;;;;;;5.38;1.67;;;;;;;;;;10571820;27;20123;-74
2024/02/20 19:22:44;;;;;;;5.57;1.63;;;;;;;;;;10571657;27;20409;-76
2024/02/20 19:27:47;;;;;;;7.20;1.77;;;;;;;;;;10577320;27;20036;-75
2024/02/20 19:32:55;;;;;;;3.92;1.80;;;;;;;;;;10572309;27;20046;-75
2024/02/20 19:37:58;;;;;;;7.53;1.73;;;;;;;;;;10564808;27;20576;-74
2024/02/20 19:43:02;;;;;;;3.70;1.40;;;;;;;;;;10562929;27;20062;-75
2024/02/20 19:48:07;;;;;;;9.30;1.50;;;;;;;;;;10576359;27;20036;-75
2024/02/20 19:53:15;;;;;;;1.70;0.98;;;;;;;;;;10573475;27;20383;-75
2024/02/20 19:58:18;;;;;;;4.13;1.48;;;;;;;;;;10567837;27;20040;-75
2024/02/20 20:03:29;;;;;;;6.40;0.50;;;;;;;;;;10581152;27;20062;-77
2024/02/20 20:08:31;;;;;;;4.00;0.80;;;;;;;;;;10567861;27;20035;-78
2024/02/20 20:13:35;;;;;;;2.30;1.10;;;;;;;;;;10570601;27;20505;-76
2024/02/20 20:18:39;;;;;;;2.85;1.25;;;;;;;;;;10572316;27;20036;-75
2024/02/20 20:23:42;;;;;;;5.50;1.25;;;;;;;;;;10567347;27;20051;-77
2024/02/20 20:28:45;;;;;;;4.90;1.65;;;;;;;;;;10574578;27;20113;-74
2024/02/20 20:33:49;;;;;;;2.67;1.10;;;;;;;;;;10567427;27;20051;-75
2024/02/20 20:38:51;;;;;;;;;;;;;;;;;;10563291;27;20120;-77
2024/02/20 20:43:54;;;;;;;2.60;1.00;;;;;;;;;;10572998;28;19919;-75
2024/02/20 20:48:59;;;;;;;1.17;0.50;;;;;;;;;;10566465;27;20127;-75
2024/02/20 20:54:03;;;;;;;2.05;0.85;;;;;;;;;;10572687;27;20055;-75
2024/02/20 20:59:16;;;;;;;6.30;1.60;;;;;;;;;;10581162;27;20039;-75
2024/02/20 21:04:20;;;;;;;3.97;1.70;;;;;;;;;;10558927;27;20430;-75
2024/02/20 21:09:27;;;;;;;5.28;1.50;;;;;;;;;;10570864;27;20036;-75
2024/02/20 21:14:31;;;;;;;4.05;1.05;;;;;;;;;;10574510;27;20042;-74
2024/02/20 21:19:35;;;;;;;2.05;1.10;;;;;;;;;;10564014;27;20093;-77
2024/02/20 21:24:38;;;;;;;3.03;1.13;;;;;;;;;;10562260;27;20148;-77
2024/02/20 21:29:41;;;;;;;0.93;0.50;;;;;;;;;;10566094;27;20488;-76
2024/02/20 21:34:45;;;;;;;2.03;0.98;;;;;;;;;;10558021;27;20304;-76
2024/02/20 21:39:48;;;;;;;3.20;1.15;;;;;;;;;;10548291;27;20039;-77
2024/02/20 21:44:50;;;;;;;5.95;1.58;;;;;;;;;;10564073;27;20047;-75
2024/02/20 21:49:55;;;;;;;3.10;1.40;;;;;;;;;;10569179;27;20401;-74
2024/02/20 21:54:58;;;;;;;0.70;0.70;;;;;;;;;;10570112;27;20043;-76
2024/02/20 22:00:00;;;;;;;1.77;0.93;;;;;;;;;;10562056;27;20070;-77
2024/02/20 22:05:07;;;;;;;1.23;1.02;;;;;;;;;;10565145;27;20065;-76
2024/02/20 22:10:11;;;;;;;4.20;1.33;;;;;;;;;;10558053;28;20384;-76
2024/02/20 22:15:17;;;;;;;1.00;0.90;;;;;;;;;;10568396;27;20123;-75
2024/02/20 22:20:22;;;;;;;4.18;1.17;;;;;;;;;;10567683;28;20032;-74
2024/02/20 22:25:25;;;;;;;5.47;1.40;;;;;;;;;;10545377;28;20044;-76
2024/02/20 22:30:27;;;;;;;2.47;1.52;;;;;;;;;;10569945;28;20506;-75
2024/02/20 22:35:34;;;;;;;3.60;1.40;;;;;;;;;;10569253;27;20055;-76
2024/02/20 22:40:36;;;;;;;2.40;1.40;;;;;;;;;;10568526;27;20122;-75
2024/02/20 22:45:39;;;;;;;4.13;1.23;;;;;;;;;;10569487;27;20396;-73
2024/02/20 22:50:46;;;;;;;2.28;0.77;;;;;;;;;;10566992;27;20097;-75
2024/02/20 22:55:48;;;;;;;5.38;1.52;;;;;;;;;;10571773;27;20035;-75
2024/02/20 23:00:51;;;;;;;3.05;1.20;;;;;;;;;;10567644;28;20147;-76
2024/02/20 23:05:55;;;;;;;3.33;1.35;;;;;;;;;;10567299;28;20050;-74
2024/02/20 23:10:58;;;;;;;3.58;1.08;;;;;;;;;;10580284;27;20032;-75
2024/02/20 23:16:03;;;;;;;2.83;1.10;;;;;;;;;;10564073;28;20066;-74
2024/02/20 23:21:07;;;;;;;2.60;0.80;;;;;;;;;;10570228;27;20050;-74
2024/02/20 23:26:10;;;;;;;1.67;0.77;;;;;;;;;;10572118;27;20035;-75
2024/02/20 23:31:13;;;;;;;4.03;1.30;;;;;;;;;;10563961;28;20083;-75
2024/02/20 23:36:17;;;;;;;3.35;1.65;;;;;;;;;;10561835;28;20047;-75
2024/02/20 23:41:20;;;;;;;1.95;0.88;;;;;;;;;;10582917;27;20032;-74
2024/02/20 23:46:22;;;;;;;5.43;1.35;;;;;;;;;;10562627;27;20094;-75
2024/02/20 23:51:26;;;;;;;2.10;0.90;;;;;;;;;;10570915;27;20035;-75
2024/02/20 23:56:29;;;;;;;7.55;1.60;;;;;;;;;;10568531;27;20139;-75
